Time;durP1;ratioP1;P1;durP2;ratioP2;P2;SDS_P1;SDS_P2;PMS_P1;PMS_P2;Temp;Humidity;BMP_temperature;BMP_pressure;BME280_temperature;BME280_humidity;BME280_pressure;Samples;Min_cycle;Max_cycle;Signal;HPM_P1;HPM_P2
2022/05/14 00:02:14;;;;;;;4.00;2.90;;;;;;;12.41;90.26;96737.63;5072494;28;20649;-86
2022/05/14 00:04:41;;;;;;;5.80;3.17;;;;;;;12.14;91.04;96731.22;5072089;28;20200;-88
2022/05/14 00:07:07;;;;;;;5.10;3.03;;;;;;;12.12;93.28;96728.75;5072440;28;20563;-87
2022/05/14 00:09:34;;;;;;;7.73;3.53;;;;;;;12.36;91.19;96734.69;5072160;28;20204;-86
2022/05/14 00:14:45;;;;;;;8.93;3.50;;;;;;;12.29;93.97;96725.81;5075983;28;20188;-87
2022/05/14 00:17:12;;;;;;;4.73;3.10;;;;;;;12.53;90.25;96722.19;5075809;28;20253;-86
2022/05/14 00:19:38;;;;;;;6.80;2.70;;;;;;;12.59;89.88;96714.38;5075640;28;20215;-87
2022/05/14 00:22:05;;;;;;;4.93;2.90;;;;;;;12.65;88.00;96718.94;5076052;28;20204;-86
2022/05/14 00:24:31;;;;;;;5.80;2.87;;;;;;;12.66;86.54;96712.66;5075673;28;20204;-87
2022/05/14 00:26:58;;;;;;;5.27;3.00;;;;;;;12.66;87.66;96719.78;5075716;28;20266;-87
2022/05/14 00:29:27;;;;;;;6.20;3.10;;;;;;;12.76;88.83;96725.63;5076114;28;20223;-87
2022/05/14 00:31:53;;;;;;;4.80;3.40;;;;;;;12.53;89.05;96724.84;5075661;28;20216;-87
2022/05/14 00:34:20;;;;;;;4.53;3.43;;;;;;;12.38;89.46;96718.66;5075737;28;20208;-87
2022/05/14 00:36:46;;;;;;;5.23;3.23;;;;;;;12.59;86.78;96730.22;5075712;28;20694;-87
2022/05/14 00:39:13;;;;;;;6.32;3.33;;;;;;;12.00;88.62;96737.25;5075451;28;20223;-87
2022/05/14 00:41:40;;;;;;;6.17;2.77;;;;;;;12.35;89.88;96730.41;5075554;28;20224;-87
2022/05/14 00:44:07;;;;;;;6.87;3.10;;;;;;;12.38;92.08;96721.31;5075560;28;20250;-87
2022/05/14 00:46:44;;;;;;;8.27;3.53;;;;;;;12.68;92.50;96721.25;5075250;28;20582;-87
2022/05/14 00:49:12;;;;;;;4.80;2.77;;;;;;;12.60;91.40;96720.47;5075265;28;20181;-87
2022/05/14 00:51:42;;;;;;;6.47;3.20;;;;;;;12.77;88.65;96717.53;5075412;28;20220;-87
2022/05/14 00:54:13;;;;;;;8.77;2.60;;;;;;;12.82;87.32;96715.97;5075293;28;20191;-86
2022/05/14 00:56:43;;;;;;;7.97;3.20;;;;;;;12.91;87.36;96722.06;5075414;28;20188;-86
2022/05/14 00:59:13;;;;;;;8.60;3.60;;;;;;;12.75;91.59;96713.41;5075344;28;20254;-87
2022/05/14 01:01:42;;;;;;;5.30;3.53;;;;;;;12.55;93.64;96713.09;5075151;28;20220;-87
2022/05/14 01:04:10;;;;;;;10.07;3.47;;;;;;;12.43;93.98;96714.47;5075193;28;20208;-88
2022/05/14 01:06:38;;;;;;;6.07;2.93;;;;;;;12.51;90.62;96714.44;5075096;28;20556;-87
2022/05/14 01:09:06;;;;;;;4.00;2.73;;;;;;;12.52;88.48;96718.72;5075352;28;20220;-87
2022/05/14 01:11:35;;;;;;;4.33;2.80;;;;;;;12.64;88.56;96714.66;5074614;28;20270;-87
2022/05/14 01:14:01;;;;;;;5.10;2.70;;;;;;;12.50;87.77;96712.78;5075049;28;20215;-87
2022/05/14 01:16:28;;;;;;;5.93;3.00;;;;;;;12.57;86.98;96703.13;5074746;28;20200;-86
2022/05/14 01:18:56;;;;;;;3.40;2.40;;;;;;;12.66;88.07;96714.47;5074879;28;20239;-86
2022/05/14 01:21:33;;;;;;;4.07;2.67;;;;;;;12.75;87.57;96708.94;5075395;28;20221;-86
2022/05/14 01:26:52;;;;;;;6.23;2.90;;;;;;;12.80;87.71;96712.72;5074489;28;20191;-87
2022/05/14 01:29:21;;;;;;;6.30;2.80;;;;;;;12.89;86.10;96727.53;5075205;28;20197;-87
2022/05/14 01:31:48;;;;;;;6.73;3.20;;;;;;;12.72;86.21;96724.34;5074930;28;20216;-87
2022/05/14 01:34:21;;;;;;;4.50;3.23;;;;;;;12.77;87.64;96726.25;5074562;28;20208;-87
2022/05/14 01:36:48;;;;;;;6.67;3.00;;;;;;;12.64;86.68;96722.59;5074689;28;20181;-87
2022/05/14 01:39:15;;;;;;;4.37;2.93;;;;;;;12.58;87.02;96723.28;5074273;28;20224;-87
2022/05/14 01:41:41;;;;;;;5.07;3.40;;;;;;;12.44;88.69;96721.41;5074574;28;20239;-88
2022/05/14 01:44:09;;;;;;;8.60;4.07;;;;;;;12.47;92.52;96730.81;5074376;28;20197;-87
2022/05/14 01:46:36;;;;;;;9.57;4.10;;;;;;;12.51;91.76;96722.38;5074092;28;20691;-88
2022/05/14 01:49:03;;;;;;;9.63;3.70;;;;;;;12.31;92.65;96726.47;5074392;28;20197;-87
2022/05/14 01:51:30;;;;;;;9.10;3.83;;;;;;;12.07;93.97;96727.66;5074195;28;20259;-87
2022/05/14 01:53:57;;;;;;;15.57;3.63;;;;;;;12.19;91.59;96722.59;5074180;28;20207;-87
2022/05/14 01:56:24;;;;;;;4.40;2.87;;;;;;;12.35;90.28;96713.75;5074113;28;20204;-87
2022/05/14 01:58:50;;;;;;;4.10;2.73;;;;;;;12.37;88.32;96715.22;5074428;28;20585;-88
2022/05/14 02:01:21;;;;;;;5.70;3.10;;;;;;;12.57;87.54;96715.53;5073965;28;20225;-87
2022/05/14 02:03:49;;;;;;;6.23;3.30;;;;;;;12.22;91.40;96721.44;5073844;28;20200;-87
2022/05/14 02:06:16;;;;;;;6.50;3.83;;;;;;;11.83;96.10;96719.84;5074223;28;20216;-87
2022/05/14 02:08:43;;;;;;;7.83;3.80;;;;;;;11.76;96.25;96719.72;5074538;28;20554;-87
2022/05/14 02:11:11;;;;;;;8.37;3.70;;;;;;;12.00;93.37;96716.09;5073966;28;20220;-87
2022/05/14 02:13:38;;;;;;;5.13;3.40;;;;;;;12.09;90.52;96715.06;5073667;28;20192;-87
2022/05/14 02:16:05;;;;;;;5.63;3.13;;;;;;;12.15;87.55;96714.38;5073687;28;20197;-87
2022/05/14 02:18:39;;;;;;;9.17;4.50;;;;;;;12.16;89.48;96725.56;5073708;28;20201;-87
2022/05/14 02:21:07;;;;;;;5.47;4.23;;;;;;;12.10;89.88;96722.00;5073709;28;20584;-87
2022/05/14 02:23:36;;;;;;;5.70;3.63;;;;;;;12.06;88.65;96720.69;5073449;28;20657;-87
2022/05/14 02:26:03;;;;;;;6.37;3.50;;;;;;;12.14;87.29;96710.09;5074041;28;20604;-87
2022/05/14 02:28:29;;;;;;;5.23;3.30;;;;;;;11.92;86.23;96714.34;5073754;28;20204;-87
2022/05/14 02:30:56;;;;;;;4.63;3.20;;;;;;;12.09;86.82;96707.13;5073369;28;20220;-87
2022/05/14 02:33:22;;;;;;;3.90;3.00;;;;;;;12.10;86.30;96704.31;5073823;28;20230;-87
2022/05/14 02:35:50;;;;;;;4.93;2.73;;;;;;;12.12;86.68;96709.41;5073198;28;20295;-87
2022/05/14 02:38:17;;;;;;;6.83;3.23;;;;;;;11.84;89.69;96706.47;5073210;28;20197;-87
2022/05/14 02:40:44;;;;;;;5.73;3.23;;;;;;;11.99;86.71;96711.81;5073461;28;20271;-88
2022/05/14 02:43:11;;;;;;;3.47;2.67;;;;;;;11.99;86.36;96714.47;5073987;28;20205;-86
2022/05/14 02:45:38;;;;;;;5.40;3.10;;;;;;;12.02;86.84;96708.84;5073523;28;20211;-88
2022/05/14 02:48:05;;;;;;;8.97;3.17;;;;;;;12.04;86.08;96714.75;5073365;28;20196;-88
2022/05/14 02:50:32;;;;;;;5.03;2.80;;;;;;;12.04;86.92;96709.47;5073375;28;20681;-87
2022/05/14 02:53:00;;;;;;;6.90;2.67;;;;;;;12.06;86.03;96710.13;5073399;28;20211;-87
2022/05/14 02:55:27;;;;;;;3.67;2.60;;;;;;;11.89;86.33;96717.31;5073401;28;20550;-87
2022/05/14 02:57:53;;;;;;;3.93;2.90;;;;;;;11.78;86.84;96709.78;5073196;28;20203;-87
2022/05/14 03:00:21;;;;;;;5.50;2.70;;;;;;;11.58;88.74;96710.38;5072807;28;20220;-88
2022/05/14 03:02:48;;;;;;;6.67;2.70;;;;;;;11.51;87.75;96720.00;5073219;28;20200;-88
2022/05/14 03:05:17;;;;;;;4.77;2.50;;;;;;;11.32;87.23;96712.44;5073281;28;20205;-88
2022/05/14 03:07:44;;;;;;;4.40;2.73;;;;;;;10.90;88.99;96707.59;5073017;28;20200;-88
2022/05/14 03:10:12;;;;;;;4.70;3.10;;;;;;;11.59;87.67;96719.94;5073096;28;20270;-88
2022/05/14 03:12:39;;;;;;;4.03;3.00;;;;;;;11.35;89.27;96714.72;5072847;28;20545;-89
2022/05/14 03:15:08;;;;;;;5.57;2.53;;;;;;;11.67;87.68;96714.63;5072943;28;20208;-87
2022/05/14 03:17:35;;;;;;;3.30;2.60;;;;;;;11.52;86.79;96718.16;5072582;28;20211;-88
2022/05/14 03:20:02;;;;;;;4.30;2.90;;;;;;;11.58;87.04;96710.38;5072761;28;20224;-88
2022/05/14 03:22:29;;;;;;;3.30;2.37;;;;;;;11.64;85.45;96714.97;5072814;28;20239;-88
2022/05/14 03:24:55;;;;;;;6.40;3.03;;;;;;;11.59;85.44;96710.19;5072685;28;20200;-88
2022/05/14 03:27:23;;;;;;;7.43;3.37;;;;;;;11.68;86.49;96721.56;5073122;28;20209;-88
2022/05/14 03:29:49;;;;;;;4.80;3.27;;;;;;;11.64;87.51;96725.53;5072785;28;20196;-88
2022/05/14 03:32:16;;;;;;;4.30;2.70;;;;;;;11.64;85.74;96725.53;5072723;28;20204;-87
2022/05/14 03:34:42;;;;;;;6.00;2.83;;;;;;;11.36;86.88;96726.94;5072990;28;20197;-87
2022/05/14 03:37:09;;;;;;;4.90;2.87;;;;;;;11.49;85.69;96718.47;5072871;28;20203;-87
2022/05/14 03:39:35;;;;;;;4.27;2.50;;;;;;;11.44;86.47;96715.53;5072554;28;20232;-87
2022/05/14 03:42:02;;;;;;;7.90;2.80;;;;;;;11.33;87.62;96721.16;5072614;28;20207;-87
2022/05/14 03:44:29;;;;;;;4.17;2.73;;;;;;;11.42;87.35;96720.97;5072347;28;20204;-86
2022/05/14 03:46:56;;;;;;;7.33;2.77;;;;;;;11.44;84.94;96729.53;5073739;28;20197;-87
2022/05/14 03:49:22;;;;;;;6.80;3.00;;;;;;;11.31;88.58;96723.97;5076624;28;20208;-87
2022/05/14 03:51:49;;;;;;;4.77;3.07;;;;;;;11.50;85.91;96733.34;5076398;28;20223;-88
2022/05/14 03:54:16;;;;;;;4.07;2.80;;;;;;;11.57;85.34;96729.88;5076668;28;20204;-87
2022/05/14 03:56:42;;;;;;;5.83;2.87;;;;;;;11.17;85.64;96726.50;5076522;28;20302;-88
2022/05/14 03:59:09;;;;;;;5.50;2.50;;;;;;;11.34;84.06;96725.44;5076238;28;20200;-87
2022/05/14 04:01:37;;;;;;;3.43;2.30;;;;;;;11.42;84.20;96720.97;5076280;28;20273;-87
2022/05/14 04:04:04;;;;;;;3.33;2.57;;;;;;;11.39;84.30;96725.75;5076329;28;20231;-87
2022/05/14 04:06:31;;;;;;;3.30;2.53;;;;;;;11.43;84.20;96722.63;5076402;28;20197;-88
2022/05/14 04:08:57;;;;;;;5.07;2.60;;;;;;;11.40;85.35;96722.94;5075907;28;20208;-87
2022/05/14 04:11:24;;;;;;;3.53;2.63;;;;;;;11.26;86.97;96722.84;5076145;28;20220;-87
2022/05/14 04:13:50;;;;;;;3.77;2.70;;;;;;;11.46;85.89;96726.75;5076174;28;20208;-88
2022/05/14 04:16:17;;;;;;;3.70;2.73;;;;;;;11.27;87.35;96727.13;5076124;28;20634;-87
2022/05/14 04:18:45;;;;;;;4.40;2.67;;;;;;;11.76;86.26;96721.50;5075863;28;20650;-87
2022/05/14 04:21:11;;;;;;;3.47;2.63;;;;;;;11.70;85.21;96727.50;5075833;28;20596;-88
2022/05/14 04:23:38;;;;;;;4.07;3.00;;;;;;;11.69;84.94;96731.13;5075770;28;20257;-87
2022/05/14 04:26:04;;;;;;;6.47;3.20;;;;;;;11.81;84.84;96737.66;5075927;28;20211;-87
2022/05/14 04:28:31;;;;;;;4.73;2.87;;;;;;;11.87;85.57;96736.97;5075851;28;20211;-87
2022/05/14 04:30:58;;;;;;;4.40;3.10;;;;;;;11.98;85.54;96733.97;5075808;28;20228;-88
2022/05/14 04:33:25;;;;;;;7.00;3.00;;;;;;;11.91;85.97;96730.34;5075659;28;20288;-87
2022/05/14 04:35:53;;;;;;;4.17;2.93;;;;;;;12.05;86.22;96735.72;5075622;28;20208;-87
2022/05/14 04:38:20;;;;;;;4.90;3.00;;;;;;;11.95;86.61;96737.78;5075775;28;20200;-87
2022/05/14 04:40:46;;;;;;;5.37;3.10;;;;;;;11.92;86.96;96737.28;5075500;28;20225;-87
2022/05/14 04:43:14;;;;;;;5.57;3.50;;;;;;;11.89;88.05;96748.19;5075732;28;20203;-87
2022/05/14 04:45:42;;;;;;;4.63;3.30;;;;;;;11.81;87.66;96746.44;5075775;28;20215;-88
2022/05/14 04:48:10;;;;;;;3.90;2.80;;;;;;;11.80;86.75;96746.56;5075404;28;20197;-87
2022/05/14 04:50:38;;;;;;;6.03;3.43;;;;;;;11.84;87.22;96745.25;5075065;28;20248;-87
2022/05/14 04:53:06;;;;;;;6.27;3.63;;;;;;;12.10;87.92;96737.84;5075266;28;20196;-87
2022/05/14 04:55:32;;;;;;;8.47;4.63;;;;;;;12.09;89.13;96741.47;5075383;28;20205;-88
2022/05/14 04:57:59;;;;;;;10.10;5.17;;;;;;;12.29;89.58;96739.03;5075019;28;20197;-87
2022/05/14 05:00:26;;;;;;;10.63;5.43;;;;;;;12.10;91.58;96743.13;5075242;28;20232;-88
2022/05/14 05:05:36;;;;;;;6.67;4.63;;;;;;;11.91;93.27;96744.38;5075117;28;20262;-88
2022/05/14 05:08:03;;;;;;;9.43;4.67;;;;;;;11.98;93.02;96745.34;5075308;28;20261;-87
2022/05/14 05:10:32;;;;;;;9.30;4.80;;;;;;;12.40;91.97;96743.09;5075562;28;20315;-88
2022/05/14 05:12:58;;;;;;;9.97;4.83;;;;;;;12.34;91.90;96747.25;5074826;28;20201;-87
2022/05/14 05:15:25;;;;;;;9.60;5.63;;;;;;;12.51;92.02;96740.03;5075111;28;20212;-87
2022/05/14 05:17:51;;;;;;;13.60;5.60;;;;;;;12.60;92.51;96739.81;5075222;28;20200;-87
2022/05/14 05:20:18;;;;;;;16.10;6.13;;;;;;;12.63;93.55;96746.56;5074922;28;20228;-87
2022/05/14 05:22:45;;;;;;;10.67;5.37;;;;;;;12.65;94.87;96748.00;5074420;28;20197;-87
2022/05/14 05:25:13;;;;;;;11.27;6.20;;;;;;;13.07;93.94;96741.25;5075052;28;20201;-87
2022/05/14 05:27:41;;;;;;;15.43;6.60;;;;;;;13.38;93.46;96741.06;5075010;28;20232;-87
2022/05/14 05:30:08;;;;;;;9.70;6.13;;;;;;;13.55;93.14;96754.78;5075124;28;20705;-87
2022/05/14 05:32:35;;;;;;;10.70;5.75;;;;;;;13.60;93.10;96747.09;5074725;28;20261;-88
2022/05/14 05:35:02;;;;;;;12.35;6.05;;;;;;;13.67;94.52;96758.63;5074239;28;20196;-87
2022/05/14 05:37:28;;;;;;;11.07;5.80;;;;;;;13.92;94.64;96752.03;5074071;28;20211;-87
2022/05/14 05:39:55;;;;;;;10.60;5.93;;;;;;;14.04;93.75;96758.50;5074306;28;20616;-88
2022/05/14 05:42:22;;;;;;;8.85;5.80;;;;;;;14.17;94.43;96758.69;5074667;28;20208;-88
2022/05/14 05:44:50;;;;;;;10.82;6.10;;;;;;;14.38;93.22;96746.28;5074385;28;20209;-88
2022/05/14 05:47:16;;;;;;;11.80;6.18;;;;;;;14.39;91.95;96753.22;5074659;28;20626;-88
2022/05/14 05:49:43;;;;;;;12.98;6.65;;;;;;;14.40;92.02;96762.81;5074374;28;20653;-88
2022/05/14 05:52:11;;;;;;;13.43;6.47;;;;;;;14.69;91.46;96771.50;5074210;28;20223;-87
2022/05/14 05:57:30;;;;;;;10.23;5.82;;;;;;;15.30;89.03;96754.94;5074251;28;20207;-87
2022/05/14 05:59:57;;;;;;;10.02;5.05;;;;;;;15.18;85.91;96756.41;5074188;28;20228;-86
2022/05/14 06:02:24;;;;;;;8.00;5.60;;;;;;;14.97;86.58;96756.47;5073911;28;20203;-88
2022/05/14 06:04:50;;;;;;;8.60;4.88;;;;;;;14.95;83.00;96760.31;5074050;28;20207;-87
2022/05/14 06:07:17;;;;;;;8.10;4.43;;;;;;;15.25;82.54;96754.69;5074420;28;20254;-89
2022/05/14 06:09:43;;;;;;;10.23;4.82;;;;;;;15.21;84.00;96749.94;5073529;28;20204;-88
2022/05/14 06:12:10;;;;;;;8.63;4.70;;;;;;;15.40;82.93;96752.72;5074006;28;20212;-88
2022/05/14 06:14:37;;;;;;;8.40;4.00;;;;;;;15.05;79.72;96753.66;5074119;28;20207;-87
2022/05/14 06:17:05;;;;;;;18.33;5.05;;;;;;;15.37;79.67;96753.13;5074535;28;20196;-88
2022/05/14 06:19:31;;;;;;;8.88;3.70;;;;;;;15.36;80.10;96748.81;5074265;28;20200;-89
2022/05/14 06:21:58;;;;;;;11.88;4.07;;;;;;;15.62;79.25;96749.00;5076075;28;20221;-89
2022/05/14 06:24:24;;;;;;;6.93;3.53;;;;;;;15.61;78.38;96753.47;5077924;28;20211;-88
2022/05/14 06:26:51;;;;;;;6.32;3.92;;;;;;;15.85;79.15;96764.44;5073956;28;20205;-88
2022/05/14 06:29:17;;;;;;;8.05;3.60;;;;;;;15.67;76.64;96760.69;5073729;28;20425;-88
2022/05/14 06:31:44;;;;;;;8.73;3.67;;;;;;;15.97;77.53;96760.25;5074042;28;20219;-88
2022/05/14 06:34:12;;;;;;;6.10;3.85;;;;;;;16.36;76.58;96760.41;5074300;28;20208;-88
2022/05/14 06:36:38;;;;;;;6.80;3.33;;;;;;;16.24;74.72;96767.31;5076467;28;20235;-88
2022/05/14 06:39:04;;;;;;;7.90;3.70;;;;;;;16.40;74.60;96755.53;5075236;28;20201;-88
2022/05/14 06:41:31;;;;;;;7.53;3.47;;;;;;;16.66;75.01;96753.72;5074815;28;20236;-88
2022/05/14 06:43:58;;;;;;;7.78;3.40;;;;;;;16.60;71.36;96755.38;5075393;28;20262;-87
2022/05/14 06:46:24;;;;;;;7.05;3.28;;;;;;;16.76;69.85;96754.16;5073909;28;20213;-88
2022/05/14 06:48:50;;;;;;;8.98;3.13;;;;;;;16.89;68.85;96747.03;5073225;28;20212;-87
2022/05/14 06:51:23;;;;;;;5.10;2.80;;;;;;;17.10;68.73;96744.97;5073804;28;20221;-87
2022/05/14 06:53:51;;;;;;;5.40;2.97;;;;;;;17.19;67.88;96753.59;5073225;28;20189;-87
2022/05/14 06:56:20;;;;;;;5.60;3.17;;;;;;;17.16;69.57;96749.50;5073564;28;20228;-87
2022/05/14 06:58:49;;;;;;;5.90;3.22;;;;;;;17.46;70.74;96756.06;5073311;28;20200;-86
2022/05/14 07:01:18;;;;;;;8.30;2.90;;;;;;;17.56;68.95;96758.31;5073092;28;20228;-86
2022/05/14 07:06:41;;;;;;;6.30;2.75;;;;;;;17.80;66.93;96753.94;5016149;28;20201;-88
2022/05/14 07:09:11;;;;;;;5.07;2.85;;;;;;;17.90;66.26;96753.53;5073154;28;20215;-87
2022/05/14 07:11:41;;;;;;;4.47;2.67;;;;;;;17.95;64.97;96751.06;5073164;28;20630;-87
2022/05/14 07:14:09;;;;;;;5.10;3.10;;;;;;;18.00;65.05;96753.91;5073045;28;20201;-87
2022/05/14 07:16:36;;;;;;;6.05;2.90;;;;;;;17.83;69.37;96752.72;5072677;28;20197;-87
2022/05/14 07:19:05;;;;;;;7.55;3.15;;;;;;;18.05;70.72;96754.91;5072883;28;20200;-87
2022/05/14 07:21:32;;;;;;;4.50;2.80;;;;;;;18.17;68.75;96753.25;5070089;28;20286;-85
2022/05/14 07:24:02;;;;;;;6.82;2.70;;;;;;;18.57;67.34;96744.03;5065864;28;20240;-85
2022/05/14 07:26:28;;;;;;;5.20;2.60;;;;;;;18.51;67.00;96748.38;5065580;28;20204;-85
2022/05/14 07:28:55;;;;;;;5.45;2.50;;;;;;;18.41;67.24;96748.00;5066352;28;20204;-85
2022/05/14 07:31:21;;;;;;;5.22;2.78;;;;;;;18.62;63.66;96742.38;5065394;28;20225;-85
2022/05/14 07:33:49;;;;;;;5.18;2.30;;;;;;;18.62;63.38;96745.03;5066033;28;20201;-85
2022/05/14 07:36:19;;;;;;;4.10;2.30;;;;;;;18.81;62.21;96751.28;5066178;28;20302;-85
2022/05/14 07:38:46;;;;;;;4.25;2.55;;;;;;;18.61;62.12;96740.72;5065596;28;20211;-86
2022/05/14 07:41:15;;;;;;;8.88;2.35;;;;;;;18.99;63.15;96744.16;5065711;28;20319;-85
2022/05/14 07:43:45;;;;;;;4.50;2.30;;;;;;;18.93;60.09;96739.72;5065302;28;20586;-85
2022/05/14 07:46:16;;;;;;;7.68;2.58;;;;;;;18.90;63.28;96748.13;5065828;28;20216;-85
2022/05/14 07:48:43;;;;;;;3.97;2.00;;;;;;;19.20;57.83;96738.50;5066000;28;20208;-85
2022/05/14 07:51:12;;;;;;;4.65;2.45;;;;;;;19.31;58.28;96746.63;5066313;28;20224;-85
2022/05/14 07:53:39;;;;;;;8.32;2.00;;;;;;;19.41;58.53;96740.78;5065921;28;20211;-85
2022/05/14 07:56:08;;;;;;;3.42;1.73;;;;;;;19.70;60.41;96757.78;5065374;28;20204;-85
2022/05/14 07:58:38;;;;;;;7.70;1.88;;;;;;;20.05;60.28;96758.88;5065472;28;20204;-85
2022/05/14 08:01:05;;;;;;;2.88;1.73;;;;;;;19.89;58.84;96751.41;5065465;28;20612;-85
2022/05/14 08:03:32;;;;;;;3.65;1.90;;;;;;;20.03;60.13;96755.59;5065928;28;20204;-85
2022/05/14 08:05:59;;;;;;;4.22;1.73;;;;;;;19.99;54.08;96754.41;5065855;28;20622;-85
2022/05/14 08:08:26;;;;;;;5.10;1.95;;;;;;;19.98;54.73;96749.28;5065836;28;20197;-85
2022/05/14 08:10:53;;;;;;;6.00;1.45;;;;;;;19.87;53.10;96752.66;5066453;28;20224;-85
2022/05/14 08:13:21;;;;;;;3.05;1.10;;;;;;;19.92;54.95;96751.00;5068042;28;20204;-85
2022/05/14 08:15:51;;;;;;;7.05;1.63;;;;;;;20.08;52.14;96754.94;5066582;28;20231;-85
2022/05/14 08:18:18;;;;;;;5.93;1.25;;;;;;;20.13;53.84;96752.44;5066027;28;20661;-85
2022/05/14 08:20:46;;;;;;;2.42;1.08;;;;;;;20.09;52.99;96754.72;5066469;28;20697;-85
2022/05/14 08:25:59;;;;;;;3.10;0.70;;;;;;;20.23;50.17;96753.53;5066085;28;20211;-85
2022/05/14 08:28:26;;;;;;;2.30;0.88;;;;;;;20.21;47.46;96753.75;5065924;28;20254;-85
2022/05/14 08:30:54;;;;;;;3.20;1.00;;;;;;;20.25;45.82;96754.94;5066261;28;20221;-85
2022/05/14 08:33:20;;;;;;;5.10;0.70;;;;;;;20.41;45.59;96753.50;5067456;28;20211;-85
2022/05/14 08:35:47;;;;;;;1.40;0.70;;;;;;;20.43;42.04;96748.72;5069598;28;20212;-85
2022/05/14 08:38:16;;;;;;;5.20;0.85;;;;;;;20.70;44.87;96745.50;5070955;28;20204;-85
2022/05/14 08:40:45;;;;;;;2.47;0.70;;;;;;;20.98;41.34;96735.03;5068983;28;20768;-85
2022/05/14 08:43:16;;;;;;;2.75;1.02;;;;;;;21.35;43.32;96739.19;5069578;28;20223;-85
2022/05/14 08:45:42;;;;;;;1.88;1.05;;;;;;;21.07;45.15;96737.13;5069104;28;20224;-85
2022/05/14 08:48:16;;;;;;;1.70;0.80;;;;;;;21.48;43.63;96734.41;5068890;28;20258;-85
2022/05/14 08:50:45;;;;;;;3.50;1.00;;;;;;;21.28;48.92;96733.91;5069515;28;20224;-86
2022/05/14 08:53:13;;;;;;;4.47;1.30;;;;;;;20.98;47.67;96733.16;5069967;28;20228;-86
2022/05/14 08:55:46;;;;;;;2.53;0.90;;;;;;;21.54;48.01;96733.50;5069774;28;20219;-85
2022/05/14 08:58:19;;;;;;;5.78;1.45;;;;;;;21.29;49.62;96732.84;5069724;28;20227;-85
2022/05/14 09:00:45;;;;;;;4.22;1.08;;;;;;;21.63;48.75;96732.13;5069639;28;20307;-85
2022/05/14 09:03:13;;;;;;;4.13;1.10;;;;;;;21.97;46.16;96733.94;5069640;28;20200;-85
2022/05/14 09:05:40;;;;;;;9.82;1.50;;;;;;;21.69;46.94;96736.53;5069520;28;20213;-84
2022/05/14 09:08:07;;;;;;;2.35;1.25;;;;;;;21.87;52.08;96737.25;5068751;28;20684;-84
2022/05/14 09:10:38;;;;;;;3.30;1.80;;;;;;;21.75;47.60;96735.59;5069693;28;20422;-85
2022/05/14 09:13:12;;;;;;;3.65;1.25;;;;;;;21.82;46.83;96736.31;5068371;28;20204;-85
2022/05/14 09:15:46;;;;;;;4.47;1.40;;;;;;;22.17;47.43;96735.19;5068513;28;20333;-85
2022/05/14 09:18:20;;;;;;;4.57;1.30;;;;;;;21.74;51.35;96731.28;5068743;28;20632;-85
2022/05/14 09:20:50;;;;;;;5.93;1.50;;;;;;;22.34;49.93;96731.59;5068471;28;20220;-85
2022/05/14 09:23:25;;;;;;;8.98;1.80;;;;;;;22.38;47.08;96730.03;5068619;28;20204;-85
2022/05/14 09:25:52;;;;;;;5.38;1.70;;;;;;;22.30;48.85;96732.28;5069084;28;20370;-86
2022/05/14 09:28:32;;;;;;;4.30;1.90;;;;;;;22.16;48.81;96734.41;5070463;28;20204;-85
2022/05/14 09:31:00;;;;;;;3.92;2.00;;;;;;;22.13;48.70;96732.19;5069744;28;20637;-85
2022/05/14 09:33:31;;;;;;;4.00;2.05;;;;;;;21.88;48.11;96724.63;5069317;28;20669;-85
2022/05/14 09:35:59;;;;;;;4.43;1.95;;;;;;;21.50;48.46;96721.59;5069524;28;20208;-85
2022/05/14 09:38:27;;;;;;;5.80;2.25;;;;;;;22.06;48.15;96723.44;5068389;28;20665;-85
2022/05/14 09:40:56;;;;;;;4.47;1.63;;;;;;;22.19;48.61;96728.53;5067617;28;20232;-85
2022/05/14 09:43:33;;;;;;;3.85;1.92;;;;;;;21.91;47.97;96727.66;5069161;28;20292;-85
2022/05/14 09:46:02;;;;;;;4.07;1.83;;;;;;;22.29;51.24;96722.63;5067767;28;20311;-85
2022/05/14 09:48:36;;;;;;;8.20;1.90;;;;;;;22.67;50.81;96722.81;5068431;28;20562;-85
2022/05/14 09:51:05;;;;;;;4.22;2.00;;;;;;;22.46;48.32;96718.91;5068202;28;20765;-85
2022/05/14 09:53:34;;;;;;;5.43;2.05;;;;;;;22.43;50.92;96729.31;5068375;28;20201;-85
2022/05/14 09:56:24;;;;;;;6.55;1.95;;;;;;;22.76;47.78;96720.31;5069355;28;20200;-85
2022/05/14 09:59:02;;;;;;;4.13;1.90;;;;;;;22.96;49.33;96717.19;5069368;28;20200;-85
2022/05/14 10:01:33;;;;;;;2.65;1.88;;;;;;;22.91;49.93;96717.09;5070161;28;20228;-85
2022/05/14 10:04:17;;;;;;;4.90;1.83;;;;;;;22.91;46.57;96707.16;5069290;28;20212;-85
2022/05/14 10:06:50;;;;;;;3.60;1.90;;;;;;;22.71;48.46;96714.84;5067908;28;20200;-85
2022/05/14 10:09:27;;;;;;;5.72;2.05;;;;;;;22.72;48.72;96712.97;5068633;28;20617;-85
2022/05/14 10:12:08;;;;;;;4.93;1.65;;;;;;;22.89;48.34;96716.53;5068577;28;20311;-86
2022/05/14 10:14:47;;;;;;;7.60;1.98;;;;;;;22.84;48.79;96713.75;5068518;28;20208;-85
2022/05/14 10:17:23;;;;;;;5.30;1.75;;;;;;;23.44;50.45;96708.34;5068425;28;20646;-85
2022/05/14 10:20:08;;;;;;;3.13;1.75;;;;;;;23.82;50.42;96713.81;5066977;28;20208;-86
2022/05/14 10:28:25;;;;;;;5.47;1.80;;;;;;;23.48;46.98;96701.41;5069693;28;20216;-86
2022/05/14 10:31:01;;;;;;;3.58;1.48;;;;;;;23.31;47.07;96706.00;5069048;28;20256;-85
2022/05/14 10:33:30;;;;;;;6.43;2.00;;;;;;;23.77;49.94;96704.88;5068883;28;20718;-86
2022/05/14 10:36:07;;;;;;;3.33;1.85;;;;;;;23.92;45.82;96694.28;5070199;28;20236;-86
2022/05/14 10:38:43;;;;;;;2.22;1.67;;;;;;;23.73;45.06;96698.34;5068730;28;20220;-85
2022/05/14 10:41:09;;;;;;;5.05;1.90;;;;;;;23.24;45.71;96698.34;5070045;28;20273;-85
2022/05/14 10:43:46;;;;;;;4.47;1.80;;;;;;;23.60;46.08;96695.94;5071004;28;20204;-85
2022/05/14 10:46:18;;;;;;;6.05;2.10;;;;;;;24.20;45.21;96698.47;5069080;28;20238;-85
2022/05/14 10:48:51;;;;;;;4.82;2.13;;;;;;;23.78;45.57;96698.41;5069672;28;20214;-85
2022/05/14 10:51:24;;;;;;;3.42;1.67;;;;;;;24.14;44.25;96695.94;5070109;28;20282;-85
2022/05/14 10:53:52;;;;;;;9.18;1.92;;;;;;;24.41;46.89;96684.19;5069240;28;20238;-85
2022/05/14 10:56:25;;;;;;;7.03;2.60;;;;;;;24.50;50.95;96692.66;5071774;28;20200;-85
2022/05/14 10:59:01;;;;;;;2.80;1.63;;;;;;;24.43;50.12;96682.06;5074897;28;20216;-84
2022/05/14 11:01:31;;;;;;;7.47;1.73;;;;;;;24.25;44.09;96686.91;5074885;28;20285;-84
2022/05/14 11:04:01;;;;;;;3.33;1.70;;;;;;;23.95;41.86;96684.69;5071479;28;20205;-85
2022/05/14 11:06:31;;;;;;;4.00;1.90;;;;;;;24.34;44.73;96694.31;5070351;28;20216;-85
2022/05/14 11:08:58;;;;;;;4.20;1.70;;;;;;;24.53;42.59;96686.75;5068436;28;20231;-85
2022/05/14 11:11:27;;;;;;;2.25;1.33;;;;;;;24.69;41.39;96674.03;5069169;28;20231;-85
2022/05/14 11:13:58;;;;;;;5.68;1.70;;;;;;;24.69;44.20;96678.56;5072549;28;20205;-84
2022/05/14 11:16:37;;;;;;;6.10;1.48;;;;;;;24.51;42.21;96683.50;5072920;28;20231;-85
2022/05/14 11:19:04;;;;;;;5.28;1.45;;;;;;;24.40;39.85;96684.44;5071526;28;20244;-85
2022/05/14 11:21:38;;;;;;;3.80;1.48;;;;;;;24.53;44.11;96670.56;5071809;28;20255;-85
2022/05/14 11:24:05;;;;;;;3.30;1.40;;;;;;;24.62;42.92;96665.31;5070077;28;20232;-85
2022/05/14 11:26:32;;;;;;;4.85;1.77;;;;;;;24.50;42.59;96669.19;5069977;28;20203;-85
2022/05/14 11:29:01;;;;;;;8.27;1.60;;;;;;;25.28;42.35;96667.59;5067031;28;20569;-85
2022/05/14 11:31:32;;;;;;;2.17;1.40;;;;;;;25.29;40.31;96664.63;5069092;28;20221;-86
2022/05/14 11:34:02;;;;;;;1.75;1.30;;;;;;;25.74;41.46;96658.75;5069173;28;20200;-85
2022/05/14 11:36:31;;;;;;;4.03;1.65;;;;;;;24.73;40.12;96667.03;5072215;28;20181;-85
2022/05/14 11:39:25;;;;;;;3.95;2.28;;;;;;;24.86;39.24;96661.25;5071848;28;20204;-85
2022/05/14 11:41:54;;;;;;;5.32;1.80;;;;;;;25.03;38.58;96659.22;5049025;28;20238;-86
2022/05/14 11:44:32;;;;;;;4.25;1.73;;;;;;;25.47;39.48;96652.59;5069935;28;20201;-85
2022/05/14 11:47:00;;;;;;;2.45;1.73;;;;;;;25.39;39.26;96653.09;5068993;28;20649;-86
2022/05/14 11:49:32;;;;;;;3.38;1.88;;;;;;;25.92;37.45;96648.31;5070707;28;20200;-85
2022/05/14 11:52:08;;;;;;;6.10;1.80;;;;;;;26.27;37.65;96654.69;5069397;28;20265;-86
2022/05/14 11:54:41;;;;;;;6.78;1.60;;;;;;;25.71;38.83;96653.88;5068031;28;20632;-85
2022/05/14 11:57:13;;;;;;;5.15;1.67;;;;;;;26.13;39.29;96644.63;5068126;28;20609;-85
2022/05/14 11:59:47;;;;;;;7.55;1.90;;;;;;;26.05;38.46;96654.06;5067387;28;20204;-86
2022/05/14 12:02:20;;;;;;;3.63;1.70;;;;;;;26.14;38.44;96644.38;5067260;28;20228;-86